createdAt,value
2023-04-20T00:00:18.656Z,-2.05
2023-04-20T00:03:23.191Z,-1.83
2023-04-20T00:06:30.663Z,-1.65
2023-04-20T00:09:34.409Z,-1.63
2023-04-20T00:12:37.670Z,-1.39
2023-04-20T00:15:41.320Z,-1.73
2023-04-20T00:18:47.261Z,-1.56
2023-04-20T00:21:51.399Z,-1.50
2023-04-20T00:24:54.977Z,-1.44
2023-04-20T00:27:59.283Z,-1.98
2023-04-20T00:31:02.456Z,-2.33
2023-04-20T00:34:06.661Z,-2.42
2023-04-20T00:37:10.498Z,-2.72
2023-04-20T00:40:14.632Z,-2.84
2023-04-20T00:43:17.775Z,-2.65
2023-04-20T00:46:22.786Z,-2.87
2023-04-20T00:49:30.887Z,-2.81
2023-04-20T00:52:34.398Z,-2.83
2023-04-20T00:55:39.591Z,-3.18
2023-04-20T00:58:44.208Z,-3.63
2023-04-20T01:01:49.325Z,-4.05
2023-04-20T01:04:52.621Z,-3.91
2023-04-20T01:07:57.862Z,-4.12
2023-04-20T01:11:05.264Z,-4.04
2023-04-20T01:14:08.682Z,-4.05
2023-04-20T01:17:12.474Z,-4.10
2023-04-20T01:20:15.598Z,-4.07
2023-04-20T01:23:19.028Z,-3.56
2023-04-20T01:26:24.189Z,-3.60
2023-04-20T01:29:28.383Z,-3.10
2023-04-20T01:32:32.334Z,-3.38
2023-04-20T01:35:36.206Z,-3.30
2023-04-20T01:38:39.503Z,-3.29
2023-04-20T01:41:43.648Z,-3.42
2023-04-20T01:44:46.865Z,-2.96
2023-04-20T01:47:51.351Z,-3.11
2023-04-20T01:50:55.055Z,-3.11
2023-04-20T01:53:58.065Z,-3.57
2023-04-20T01:57:03.490Z,-3.50
2023-04-20T02:00:09.038Z,-3.71
2023-04-20T02:03:20.781Z,-3.62
2023-04-20T02:06:24.976Z,-3.33
2023-04-20T02:09:28.860Z,-3.27
2023-04-20T02:12:31.956Z,-2.80
2023-04-20T02:15:35.716Z,-2.42
2023-04-20T02:18:39.900Z,-2.07
2023-04-20T02:21:43.933Z,-1.70
2023-04-20T02:24:47.695Z,-2.02
2023-04-20T02:27:52.082Z,-2.44
2023-04-20T02:30:56.257Z,-2.45
2023-04-20T02:34:00.453Z,-1.75
2023-04-20T02:37:05.136Z,-0.54
2023-04-20T02:40:09.586Z,-0.08
2023-04-20T02:43:12.791Z,-0.17
2023-04-20T02:46:18.718Z,-0.71
2023-04-20T02:49:21.806Z,-0.97
2023-04-20T02:52:25.060Z,-1.08
2023-04-20T02:55:30.446Z,-1.05
2023-04-20T02:58:39.602Z,0.10
2023-04-20T03:02:15.710Z,0.80
2023-04-20T03:05:20.062Z,1.35
2023-04-20T03:08:24.472Z,2.61
2023-04-20T03:11:28.826Z,1.81
2023-04-20T03:14:33.428Z,0.48
2023-04-20T03:17:38.394Z,1.21
2023-04-20T03:20:42.490Z,2.11
2023-04-20T03:23:45.957Z,1.89
2023-04-20T03:26:49.595Z,2.58
2023-04-20T03:29:56.257Z,2.67
2023-04-20T03:33:00.285Z,3.67
2023-04-20T03:36:06.426Z,4.33
2023-04-20T03:39:10.745Z,2.77
2023-04-20T03:42:13.749Z,3.79
2023-04-20T03:45:18.214Z,5.31
2023-04-20T03:48:22.040Z,4.44
2023-04-20T03:51:25.868Z,5.50
2023-04-20T03:54:29.437Z,4.22
2023-04-20T03:57:33.577Z,3.87
2023-04-20T04:00:39.577Z,3.80
2023-04-20T04:03:47.978Z,4.68
2023-04-20T04:06:51.257Z,4.63
2023-04-20T04:09:54.442Z,6.76
2023-04-20T04:12:57.545Z,7.05
2023-04-20T04:16:01.924Z,5.86
2023-04-20T04:19:05.962Z,7.34
2023-04-20T04:22:10.280Z,7.49
2023-04-20T04:25:23.803Z,7.13
2023-04-20T04:28:27.219Z,6.88
2023-04-20T04:31:38.620Z,6.15
2023-04-20T04:34:50.836Z,7.01
2023-04-20T04:37:54.690Z,6.33
2023-04-20T04:40:58.689Z,8.00
2023-04-20T04:44:04.357Z,6.18
2023-04-20T04:47:10.053Z,5.64
2023-04-20T04:50:14.137Z,6.18
2023-04-20T04:53:17.318Z,6.31
2023-04-20T04:56:21.471Z,5.68
2023-04-20T04:59:24.573Z,4.94
2023-04-20T05:02:28.560Z,3.65
2023-04-20T05:05:32.084Z,3.23
2023-04-20T05:08:36.291Z,4.44
2023-04-20T05:11:39.710Z,6.46
2023-04-20T05:14:43.707Z,7.20
2023-04-20T05:17:50.209Z,7.27
2023-04-20T05:20:54.325Z,8.44
2023-04-20T05:23:57.975Z,9.84
2023-04-20T05:27:02.294Z,8.66
2023-04-20T05:30:17.131Z,9.72
2023-04-20T05:33:23.502Z,11.14
2023-04-20T05:36:27.765Z,9.85
2023-04-20T05:39:30.851Z,8.96
2023-04-20T05:42:33.845Z,9.22
2023-04-20T05:45:37.987Z,9.01
2023-04-20T05:48:41.129Z,13.06
2023-04-20T05:51:45.133Z,13.18
2023-04-20T05:54:50.322Z,13.73
2023-04-20T05:57:53.817Z,13.94
2023-04-20T06:00:57.450Z,15.52
2023-04-20T06:04:02.172Z,14.54
2023-04-20T06:07:05.403Z,15.23
2023-04-20T06:10:09.700Z,15.11
2023-04-20T06:13:12.791Z,11.48
2023-04-20T06:16:16.668Z,11.25
2023-04-20T06:19:20.472Z,11.24
2023-04-20T06:22:25.208Z,14.33
2023-04-20T06:25:28.921Z,13.11
2023-04-20T06:28:32.687Z,12.68
2023-04-20T06:31:36.595Z,12.06
2023-04-20T06:34:40.726Z,14.13
2023-04-20T06:37:44.287Z,12.91
2023-04-20T06:40:48.265Z,13.55
2023-04-20T06:43:52.215Z,14.65
2023-04-20T06:46:55.624Z,14.77
2023-04-20T06:50:03.104Z,17.04
2023-04-20T06:53:07.253Z,14.88
2023-04-20T06:56:12.064Z,15.05
2023-04-20T06:59:18.869Z,12.02
2023-04-20T07:02:23.004Z,12.48
2023-04-20T07:05:29.737Z,13.74
2023-04-20T07:08:34.053Z,13.74
2023-04-20T07:11:38.044Z,12.42
2023-04-20T07:14:41.032Z,14.58
2023-04-20T07:17:44.839Z,14.64
2023-04-20T07:20:48.550Z,13.90
2023-04-20T07:23:52.248Z,15.19
2023-04-20T07:26:56.223Z,15.77
2023-04-20T07:30:00.436Z,15.65
2023-04-20T07:33:04.606Z,11.62
2023-04-20T07:36:08.685Z,12.71
2023-04-20T07:39:12.407Z,12.38
2023-04-20T07:42:16.259Z,12.03
2023-04-20T07:45:20.902Z,13.58
2023-04-20T07:48:25.059Z,10.73
2023-04-20T07:51:30.909Z,10.66
2023-04-20T07:54:34.730Z,11.32
2023-04-20T07:57:38.195Z,11.40
2023-04-20T08:00:42.259Z,10.41
2023-04-20T08:03:46.305Z,10.64
2023-04-20T08:06:50.314Z,10.66
2023-04-20T08:09:54.134Z,14.58
2023-04-20T08:12:58.990Z,13.97
2023-04-20T08:16:02.738Z,13.31
2023-04-20T08:19:11.201Z,14.21
2023-04-20T08:22:14.954Z,13.63
2023-04-20T08:25:19.062Z,14.53
2023-04-20T08:28:33.415Z,13.65
2023-04-20T08:31:38.234Z,12.03
2023-04-20T08:34:42.764Z,13.27
2023-04-20T08:37:46.845Z,11.98
2023-04-20T08:40:50.964Z,13.41
2023-04-20T08:43:54.711Z,14.21
2023-04-20T08:46:58.737Z,14.37
2023-04-20T08:50:05.282Z,13.36
2023-04-20T08:53:10.442Z,12.67
2023-04-20T08:56:14.018Z,15.58
2023-04-20T08:59:17.854Z,14.03
2023-04-20T09:02:22.986Z,15.59
2023-04-20T09:05:31.466Z,13.95
2023-04-20T09:08:42.582Z,14.71
2023-04-20T09:11:46.837Z,15.21
2023-04-20T09:14:51.955Z,15.86
2023-04-20T09:17:56.422Z,15.42
2023-04-20T09:21:09.657Z,15.33
2023-04-20T09:24:13.531Z,12.82
2023-04-20T09:27:18.275Z,13.31
2023-04-20T09:30:21.973Z,12.56
2023-04-20T09:33:30.235Z,12.98
2023-04-20T09:36:40.689Z,13.76
2023-04-20T09:39:46.417Z,13.19
2023-04-20T09:42:51.852Z,11.50
2023-04-20T09:45:57.286Z,11.16
2023-04-20T09:49:04.087Z,9.91
2023-04-20T09:52:08.300Z,11.10
2023-04-20T09:55:12.378Z,11.05
2023-04-20T09:58:24.713Z,10.50
2023-04-20T10:01:35.251Z,10.97
2023-04-20T10:04:39.302Z,9.52
2023-04-20T10:07:43.337Z,9.58
2023-04-20T10:10:49.849Z,8.68
2023-04-20T10:13:53.136Z,8.74
2023-04-20T10:17:15.020Z,9.81
2023-04-20T10:20:25.219Z,8.89
2023-04-20T10:23:28.822Z,7.68
2023-04-20T10:26:44.130Z,7.20
2023-04-20T10:29:48.397Z,5.70
2023-04-20T10:33:04.244Z,5.97
2023-04-20T10:36:08.089Z,4.38
2023-04-20T10:39:20.255Z,4.76
2023-04-20T10:42:24.598Z,3.48
2023-04-20T10:45:42.112Z,1.68
2023-04-20T10:48:53.751Z,0.89
2023-04-20T10:51:57.964Z,0.78
2023-04-20T10:55:02.190Z,0.63
2023-04-20T10:58:06.109Z,0.39
2023-04-20T11:01:10.739Z,0.11
2023-04-20T11:04:17.822Z,-0.30
2023-04-20T11:07:22.825Z,-0.60
2023-04-20T11:10:39.221Z,-0.69
2023-04-20T11:13:43.382Z,-0.79
2023-04-20T11:16:53.855Z,-0.66
2023-04-20T11:20:11.775Z,-0.95
2023-04-20T11:23:15.568Z,-1.03
2023-04-20T11:26:19.848Z,-1.31
2023-04-20T11:29:31.283Z,-1.32
2023-04-20T11:32:36.711Z,-1.59
2023-04-20T11:35:42.474Z,-1.65
2023-04-20T11:38:45.878Z,-1.58
2023-04-20T11:41:49.511Z,-1.54
2023-04-20T11:44:53.960Z,-1.71
2023-04-20T11:47:57.152Z,-1.73
2023-04-20T11:51:01.625Z,-2.00
2023-04-20T11:54:04.776Z,-2.01
2023-04-20T11:57:08.631Z,-1.94
2023-04-20T12:00:13.766Z,-1.80
2023-04-20T12:03:18.494Z,-1.90
2023-04-20T12:06:22.803Z,-1.93
2023-04-20T12:09:31.319Z,-2.05
2023-04-20T12:12:34.618Z,-1.90
2023-04-20T12:15:38.334Z,-2.09
2023-04-20T12:18:41.964Z,-2.36
2023-04-20T12:21:47.656Z,-2.32
2023-04-20T12:24:50.639Z,-2.43
2023-04-20T12:27:54.138Z,-2.36
2023-04-20T12:30:58.074Z,-2.32
2023-04-20T12:34:02.240Z,-2.47
2023-04-20T12:37:05.749Z,-2.44
2023-04-20T12:40:11.122Z,-2.60
2023-04-20T12:43:14.259Z,-2.65
2023-04-20T12:46:19.069Z,-2.33
2023-04-20T12:49:22.770Z,-2.25
2023-04-20T12:52:26.921Z,-2.32
2023-04-20T12:55:30.312Z,-2.57
2023-04-20T12:58:33.501Z,-2.60
2023-04-20T13:01:36.798Z,-2.65
2023-04-20T13:04:40.114Z,-2.57
2023-04-20T13:07:43.968Z,-2.65
2023-04-20T13:10:48.529Z,-2.55
2023-04-20T13:13:52.223Z,-2.51
2023-04-20T13:16:56.139Z,-2.36
2023-04-20T13:19:59.873Z,-2.65
2023-04-20T13:23:05.121Z,-2.91
2023-04-20T13:26:09.254Z,-2.92
2023-04-20T13:29:12.825Z,-2.88
2023-04-20T13:32:15.946Z,-2.83
2023-04-20T13:35:20.313Z,-3.07
2023-04-20T13:38:23.365Z,-3.14
2023-04-20T13:41:26.670Z,-3.37
2023-04-20T13:44:29.570Z,-3.22
2023-04-20T13:47:33.676Z,-3.31
2023-04-20T13:50:37.069Z,-3.37
2023-04-20T13:53:40.892Z,-3.51
2023-04-20T13:56:44.202Z,-3.59
2023-04-20T13:59:47.215Z,-3.84
2023-04-20T14:02:51.605Z,-3.87
2023-04-20T14:05:55.253Z,-4.00
2023-04-20T14:08:58.362Z,-3.98
2023-04-20T14:12:02.778Z,-3.94
2023-04-20T14:15:07.412Z,-4.13
2023-04-20T14:18:10.528Z,-4.15
2023-04-20T14:21:14.423Z,-4.05
2023-04-20T14:24:17.621Z,-4.09
2023-04-20T14:27:21.257Z,-4.11
2023-04-20T14:30:24.885Z,-4.08
2023-04-20T14:33:29.308Z,-4.00
2023-04-20T14:36:32.975Z,-3.97
2023-04-20T14:39:36.549Z,-4.20
2023-04-20T14:42:39.906Z,-4.30
2023-04-20T14:45:45.647Z,-4.16
2023-04-20T14:48:49.866Z,-4.04
2023-04-20T14:51:53.277Z,-4.15
2023-04-20T14:54:57.356Z,-4.22
2023-04-20T14:58:01.040Z,-4.31
2023-04-20T15:01:05.580Z,-4.19
2023-04-20T15:04:08.686Z,-4.28
2023-04-20T15:07:12.326Z,-4.41
2023-04-20T15:10:15.403Z,-4.27
2023-04-20T15:13:19.517Z,-4.18
2023-04-20T15:16:22.620Z,-4.31
2023-04-20T15:19:26.787Z,-4.35
2023-04-20T15:22:31.379Z,-4.30
2023-04-20T15:25:34.749Z,-4.27
2023-04-20T15:28:37.815Z,-4.44
2023-04-20T15:31:41.713Z,-4.48
2023-04-20T15:34:45.392Z,-4.58
2023-04-20T15:37:48.974Z,-4.69
2023-04-20T15:40:52.259Z,-4.72
2023-04-20T15:43:55.934Z,-4.70
2023-04-20T15:46:59.113Z,-4.66
2023-04-20T15:50:02.492Z,-4.71
2023-04-20T15:53:05.634Z,-4.77
2023-04-20T15:56:09.849Z,-4.82
2023-04-20T15:59:13.553Z,-4.81
2023-04-20T16:02:17.685Z,-4.84
2023-04-20T16:08:42.306Z,-5.10
2023-04-20T16:11:45.736Z,-4.97
2023-04-20T16:14:51.744Z,-5.20
2023-04-20T16:17:57.035Z,-5.32
2023-04-20T16:21:01.211Z,-5.45
2023-04-20T16:24:04.730Z,-5.56
2023-04-20T16:27:08.535Z,-5.52
2023-04-20T16:30:13.177Z,-5.40
2023-04-20T16:33:16.994Z,-5.23
2023-04-20T16:36:20.846Z,-5.20
2023-04-20T16:39:24.305Z,-5.23
2023-04-20T16:42:27.990Z,-5.17
2023-04-20T16:45:33.603Z,-5.04
2023-04-20T16:48:37.668Z,-5.00
2023-04-20T16:51:41.585Z,-4.96
2023-04-20T16:54:45.689Z,-4.95
2023-04-20T16:57:49.270Z,-4.98
2023-04-20T17:00:52.432Z,-4.97
2023-04-20T17:03:55.853Z,-4.97
2023-04-20T17:06:59.128Z,-5.07
2023-04-20T17:10:02.147Z,-5.11
2023-04-20T17:13:05.566Z,-5.27
2023-04-20T17:16:09.223Z,-5.36
2023-04-20T17:19:13.262Z,-5.40
2023-04-20T17:22:17.194Z,-5.37
2023-04-20T17:25:20.636Z,-5.39
2023-04-20T17:28:23.780Z,-5.45
2023-04-20T17:31:27.997Z,-5.53
2023-04-20T17:34:31.894Z,-5.60
2023-04-20T17:37:37.359Z,-5.48
2023-04-20T17:40:41.094Z,-5.46
2023-04-20T17:43:44.168Z,-5.40
2023-04-20T17:46:48.302Z,-5.34
2023-04-20T17:49:52.549Z,-5.39
2023-04-20T17:52:55.920Z,-5.39
2023-04-20T17:56:00.145Z,-5.34
2023-04-20T17:59:03.340Z,-5.30
2023-04-20T18:02:09.911Z,-5.31
2023-04-20T18:05:13.333Z,-5.33
2023-04-20T18:08:18.184Z,-5.34
2023-04-20T18:11:22.261Z,-5.48
2023-04-20T18:14:26.162Z,-5.55
2023-04-20T18:17:29.597Z,-5.57
2023-04-20T18:20:32.797Z,-5.50
2023-04-20T18:23:36.496Z,-5.56
2023-04-20T18:26:39.503Z,-5.52
2023-04-20T18:29:42.798Z,-5.52
2023-04-20T18:32:46.850Z,-5.55
2023-04-20T18:35:50.256Z,-5.44
2023-04-20T18:38:54.604Z,-5.41
2023-04-20T18:41:59.078Z,-5.41
2023-04-20T18:45:04.051Z,-5.44
2023-04-20T18:48:08.179Z,-5.45
2023-04-20T18:51:11.502Z,-5.41
2023-04-20T18:54:15.310Z,-5.43
2023-04-20T18:57:22.093Z,-5.45
2023-04-20T19:00:26.506Z,-5.44
2023-04-20T19:03:31.291Z,-5.46
2023-04-20T19:06:35.057Z,-5.52
2023-04-20T19:09:38.088Z,-5.58
2023-04-20T19:12:41.348Z,-5.64
2023-04-20T19:15:46.099Z,-5.63
2023-04-20T19:18:50.950Z,-5.59
2023-04-20T19:21:54.533Z,-5.55
2023-04-20T19:24:57.898Z,-5.53
2023-04-20T19:28:01.585Z,-5.56
2023-04-20T19:31:06.168Z,-5.52
2023-04-20T19:34:09.339Z,-5.54
2023-04-20T19:37:12.721Z,-5.64
2023-04-20T19:40:16.862Z,-5.66
2023-04-20T19:43:20.318Z,-5.63
2023-04-20T19:46:23.493Z,-5.70
2023-04-20T19:49:27.277Z,-5.89
2023-04-20T19:52:30.306Z,-6.04
2023-04-20T19:55:34.949Z,-6.12
2023-04-20T19:58:38.510Z,-6.16
2023-04-20T20:01:41.944Z,-6.16
2023-04-20T20:04:45.302Z,-6.10
2023-04-20T20:07:49.543Z,-6.14
2023-04-20T20:10:52.547Z,-6.29
2023-04-20T20:13:55.943Z,-6.35
2023-04-20T20:16:59.629Z,-6.39
2023-04-20T20:20:06.814Z,-6.40
2023-04-20T20:23:09.908Z,-6.42
2023-04-20T20:26:12.993Z,-6.45
2023-04-20T20:29:16.817Z,-6.55
2023-04-20T20:32:20.048Z,-6.70
2023-04-20T20:35:23.194Z,-6.73
2023-04-20T20:38:27.580Z,-6.78
2023-04-20T20:41:31.232Z,-6.80
2023-04-20T20:44:36.026Z,-6.79
2023-04-20T20:47:41.914Z,-6.78
2023-04-20T20:50:46.445Z,-6.84
2023-04-20T20:53:50.049Z,-6.89
2023-04-20T20:56:54.117Z,-6.86
2023-04-20T20:59:58.385Z,-6.90
2023-04-20T21:03:02.715Z,-7.02
2023-04-20T21:06:06.852Z,-7.00
2023-04-20T21:09:10.599Z,-7.08
2023-04-20T21:12:14.996Z,-6.99
2023-04-20T21:15:18.057Z,-6.98
2023-04-20T21:18:22.153Z,-7.01
2023-04-20T21:21:26.151Z,-7.06
2023-04-20T21:24:29.675Z,-7.04
2023-04-20T21:27:32.742Z,-7.05
2023-04-20T21:30:36.244Z,-7.04
2023-04-20T21:33:40.145Z,-7.00
2023-04-20T21:36:44.316Z,-6.99
2023-04-20T21:39:48.055Z,-7.03
2023-04-20T21:42:51.639Z,-7.01
2023-04-20T21:45:55.481Z,-7.07
2023-04-20T21:48:59.304Z,-6.99
2023-04-20T21:52:02.347Z,-6.89
2023-04-20T21:55:05.976Z,-6.86
2023-04-20T21:58:09.111Z,-6.84
2023-04-20T22:01:12.582Z,-6.88
2023-04-20T22:04:17.353Z,-6.91
2023-04-20T22:07:21.471Z,-6.90
2023-04-20T22:10:26.655Z,-6.73
2023-04-20T22:13:30.381Z,-6.62
2023-04-20T22:16:36.255Z,-6.60
2023-04-20T22:19:39.486Z,-6.53
2023-04-20T22:22:43.492Z,-6.38
2023-04-20T22:25:48.267Z,-6.30
2023-04-20T22:28:51.515Z,-6.15
2023-04-20T22:31:55.507Z,-6.08
2023-04-20T22:34:58.622Z,-6.01
2023-04-20T22:38:01.916Z,-5.84
2023-04-20T22:41:05.697Z,-5.71
2023-04-20T22:44:09.152Z,-5.53
2023-04-20T22:47:12.191Z,-5.43
2023-04-20T22:50:15.709Z,-5.28
2023-04-20T22:53:18.699Z,-5.14
2023-04-20T22:56:21.793Z,-5.01
2023-04-20T22:59:25.581Z,-4.80
2023-04-20T23:02:28.911Z,-4.75
2023-04-20T23:05:32.523Z,-4.71
2023-04-20T23:08:36.299Z,-4.55
2023-04-20T23:11:41.439Z,-4.40
2023-04-20T23:14:44.842Z,-4.32
2023-04-20T23:17:49.301Z,-4.32
2023-04-20T23:20:52.959Z,-4.04
2023-04-20T23:23:58.479Z,-4.03
2023-04-20T23:27:02.353Z,-4.01
2023-04-20T23:30:07.200Z,-3.98
2023-04-20T23:33:11.404Z,-3.92
2023-04-20T23:36:14.667Z,-4.16
2023-04-20T23:39:19.095Z,-4.25
2023-04-20T23:42:24.152Z,-4.20
2023-04-20T23:45:28.218Z,-4.00
2023-04-20T23:48:32.082Z,-3.87
2023-04-20T23:51:36.171Z,-3.99
2023-04-20T23:54:39.848Z,-4.01
2023-04-20T23:57:44.257Z,-3.85
